Wetterdaten: Woche 31.12.18 - 06.01.19 (KW1)
Datum Zeit Temp. A. Feuchte A. Luftdruck Regen Wind Richtung Taupunkt Windchill Windben
31.12.2018 00:00 4,3 C 82 % 1025,4 hPa 0,5 l/m 6,5 km/h N 1,5 C 3,6 C 20,5 km/h
31.12.2018 01:00 4,9 C 83 % 1025,6 hPa 0,3 l/m 10,6 km/h N 2,1 C 1,6 C 27,8 km/h
31.12.2018 02:00 5,0 C 79 % 1026,0 hPa 0,0 l/m 8,9 km/h N 1,6 C 2,8 C 25,3 km/h
31.12.2018 03:00 4,9 C 77 % 1026,4 hPa 0,0 l/m 7,7 km/h N 1,2 C 3,7 C 22,5 km/h
31.12.2018 04:00 4,6 C 79 % 1026,3 hPa 0,0 l/m 7,5 km/h N 1,2 C 3,5 C 25,4 km/h
31.12.2018 05:00 4,4 C 78 % 1026,8 hPa 0,0 l/m 5,9 km/h N 0,9 C 4,1 C 18,1 km/h
31.12.2018 06:00 4,8 C 75 % 1027,3 hPa 0,0 l/m 7,1 km/h N 0,7 C 4,0 C 23,3 km/h
31.12.2018 07:00 5,0 C 73 % 1027,9 hPa 0,0 l/m 6,7 km/h N 0,6 C 4,6 C 21,3 km/h
31.12.2018 08:00 4,9 C 72 % 1028,6 hPa 0,0 l/m 5,1 km/h N 0,4 C 4,9 C 18,9 km/h
31.12.2018 09:00 4,8 C 73 % 1029,2 hPa 0,0 l/m 6,2 km/h N 0,3 C 4,7 C 22,5 km/h
31.12.2018 10:00 5,3 C 72 % 1029,6 hPa 0,0 l/m 7,3 km/h N 0,7 C 4,5 C 22,9 km/h
31.12.2018 11:00 5,8 C 70 % 1029,3 hPa 0,0 l/m 8,4 km/h N 0,8 C 4,1 C 27,4 km/h
31.12.2018 12:00 6,0 C 67 % 1028,7 hPa 0,0 l/m 8,1 km/h N 0,4 C 4,6 C 22,1 km/h
31.12.2018 13:00 5,9 C 67 % 1028,7 hPa 0,0 l/m 6,5 km/h N 0,1 C 5,5 C 20,1 km/h
31.12.2018 14:00 6,2 C 66 % 1028,8 hPa 0,0 l/m 6,6 km/h N 0,4 C 5,9 C 19,7 km/h
31.12.2018 15:00 5,8 C 67 % 1029,3 hPa 0,0 l/m 4,2 km/h N 0,1 C 5,8 C 17,7 km/h
31.12.2018 16:00 4,7 C 69 % 1029,8 hPa 0,0 l/m 0,1 km/h N -0,5 C 4,7 C 1,6 km/h
31.12.2018 17:00 2,6 C 73 % 1030,2 hPa 0,0 l/m 0,0 km/h N -1,8 C 2,6 C 0,0 km/h
31.12.2018 18:00 3,2 C 81 % 1030,5 hPa 0,0 l/m 0,4 km/h N 0,2 C 3,2 C 5,2 km/h
31.12.2018 19:00 4,4 C 82 % 1030,8 hPa 0,0 l/m 0,7 km/h N 1,6 C 4,4 C 5,6 km/h
31.12.2018 20:00 4,3 C 82 % 1031,0 hPa 0,0 l/m 0,9 km/h N 1,5 C 4,3 C 6,8 km/h
31.12.2018 21:00 4,2 C 82 % 1030,8 hPa 0,0 l/m 1,4 km/h N 1,4 C 4,2 C 6,4 km/h
31.12.2018 22:00 4,2 C 82 % 1030,8 hPa 0,0 l/m 3,5 km/h N 1,4 C 4,2 C 12,1 km/h
31.12.2018 23:00 4,1 C 82 % 1030,8 hPa 0,0 l/m 2,6 km/h N 1,3 C 4,1 C 11,3 km/h
01.01.2019 00:00 3,6 C 82 % 1030,7 hPa 0,0 l/m 1,4 km/h N 0,8 C 3,6 C 8,0 km/h
01.01.2019 01:00 3,0 C 82 % 1030,4 hPa 0,0 l/m 0,0 km/h N 0,3 C 3,0 C 0,4 km/h
01.01.2019 02:00 3,1 C 82 % 1030,3 hPa 0,0 l/m 0,1 km/h N 0,4 C 3,1 C 2,8 km/h
01.01.2019 03:00 4,3 C 82 % 1029,7 hPa 0,0 l/m 0,3 km/h N 1,5 C 4,3 C 2,8 km/h
01.01.2019 04:00 3,8 C 82 % 1028,9 hPa 0,0 l/m 0,0 km/h N 1,0 C 3,8 C 0,0 km/h
01.01.2019 05:00 3,2 C 82 % 1027,8 hPa 0,0 l/m 0,0 km/h N 0,4 C 3,2 C 0,0 km/h
01.01.2019 06:00 3,2 C 82 % 1027,3 hPa 0,0 l/m 0,0 km/h N 0,4 C 3,2 C 0,0 km/h
01.01.2019 07:00 4,6 C 82 % 1026,4 hPa 0,0 l/m 1,0 km/h N 1,7 C 4,6 C 7,7 km/h
01.01.2019 08:00 6,2 C 81 % 1026,0 hPa 0,0 l/m 5,6 km/h N 3,3 C 5,6 C 17,3 km/h
01.01.2019 09:00 6,9 C 81 % 1025,5 hPa 0,0 l/m 7,1 km/h N 3,9 C 6,3 C 21,3 km/h
01.01.2019 10:00 7,4 C 79 % 1024,5 hPa 0,0 l/m 7,5 km/h N 3,9 C 6,5 C 26,5 km/h
01.01.2019 11:00 7,7 C 76 % 1023,3 hPa 0,0 l/m 6,8 km/h N 3,8 C 7,2 C 25,0 km/h
01.01.2019 12:00 8,1 C 71 % 1022,3 hPa 0,0 l/m 7,6 km/h N 3,1 C 6,8 C 24,9 km/h
01.01.2019 13:00 8,2 C 69 % 1021,5 hPa 0,0 l/m 9,8 km/h N 2,9 C 5,8 C 32,2 km/h
01.01.2019 14:00 7,9 C 71 % 1020,3 hPa 0,0 l/m 10,1 km/h N 3,0 C 5,3 C 32,6 km/h
01.01.2019 15:00 7,8 C 70 % 1019,3 hPa 0,0 l/m 11,6 km/h N 2,7 C 4,2 C 39,4 km/h
01.01.2019 16:00 7,7 C 70 % 1019,0 hPa 0,0 l/m 9,0 km/h N 2,6 C 5,8 C 33,4 km/h
01.01.2019 17:00 7,6 C 70 % 1018,4 hPa 0,0 l/m 7,6 km/h N 2,5 C 6,6 C 28,6 km/h
01.01.2019 18:00 7,4 C 71 % 1017,7 hPa 0,0 l/m 7,4 km/h N 2,4 C 6,5 C 28,9 km/h
01.01.2019 19:00 7,3 C 72 % 1017,0 hPa 0,0 l/m 11,1 km/h N 2,4 C 4,0 C 38,2 km/h
01.01.2019 20:00 7,2 C 72 % 1015,9 hPa 0,0 l/m 14,1 km/h N 2,5 C 2,3 C 41,1 km/h
01.01.2019 21:00 7,2 C 72 % 1014,8 hPa 0,0 l/m 16,9 km/h N 2,4 C 0,9 C 49,9 km/h
01.01.2019 22:00 7,0 C 72 % 1013,9 hPa 0,0 l/m 18,1 km/h N 2,3 C 0,2 C 49,1 km/h
01.01.2019 23:00 7,0 C 73 % 1014,3 hPa 0,0 l/m 18,4 km/h N 2,4 C 0,0 C 46,3 km/h
02.01.2019 00:00 4,3 C 79 % 1015,3 hPa 1,3 l/m 11,7 km/h N 0,9 C 0,2 C 32,2 km/h
02.01.2019 01:00 4,2 C 80 % 1015,4 hPa 0,3 l/m 11,2 km/h N 1,0 C 0,3 C 29,4 km/h
02.01.2019 02:00 4,2 C 75 % 1015,8 hPa 0,0 l/m 8,3 km/h N 0,2 C 2,5 C 24,5 km/h
02.01.2019 03:00 4,3 C 69 % 1015,0 hPa 0,0 l/m 12,4 km/h N -0,8 C -0,2 C 33,0 km/h
02.01.2019 04:00 4,3 C 63 % 1014,9 hPa 0,0 l/m 15,2 km/h N -2,1 C -1,9 C 35,0 km/h
02.01.2019 05:00 3,9 C 61 % 1014,9 hPa 0,0 l/m 17,5 km/h N -2,9 C -3,4 C 40,6 km/h
02.01.2019 06:00 3,9 C 65 % 1015,5 hPa 0,0 l/m 16,4 km/h N -2,1 C -2,9 C 41,5 km/h
02.01.2019 07:00 3,6 C 69 % 1015,9 hPa 0,0 l/m 16,0 km/h N -1,6 C -3,1 C 43,1 km/h
02.01.2019 08:00 3,4 C 72 % 1016,6 hPa 0,0 l/m 17,1 km/h N -1,2 C -3,9 C 39,4 km/h
02.01.2019 09:00 3,2 C 74 % 1016,9 hPa 0,0 l/m 17,0 km/h N -1,0 C -4,1 C 40,6 km/h
02.01.2019 10:00 3,4 C 76 % 1017,3 hPa 0,0 l/m 16,1 km/h N -0,4 C -3,4 C 36,2 km/h
02.01.2019 11:00 3,7 C 69 % 1017,2 hPa 0,0 l/m 15,6 km/h N -1,4 C -2,8 C 40,2 km/h
02.01.2019 12:00 3,5 C 69 % 1017,4 hPa 0,0 l/m 17,2 km/h N -1,7 C -3,9 C 42,6 km/h
02.01.2019 13:00 2,5 C 75 % 1017,8 hPa 0,0 l/m 15,7 km/h N -1,5 C -4,3 C 35,4 km/h
02.01.2019 14:00 3,2 C 68 % 1018,2 hPa 0,0 l/m 13,8 km/h N -2,1 C -2,4 C 34,6 km/h
02.01.2019 15:00 3,0 C 67 % 1019,1 hPa 0,0 l/m 11,3 km/h N -2,5 C -1,1 C 29,8 km/h
02.01.2019 16:00 2,4 C 69 % 1020,1 hPa 0,0 l/m 12,5 km/h N -2,7 C -2,5 C 34,2 km/h
02.01.2019 17:00 2,3 C 69 % 1020,9 hPa 0,0 l/m 12,8 km/h N -2,8 C -2,8 C 29,8 km/h
02.01.2019 18:00 2,1 C 68 % 1022,0 hPa 0,0 l/m 12,8 km/h N -3,3 C -3,2 C 33,4 km/h
02.01.2019 19:00 1,6 C 66 % 1023,1 hPa 0,0 l/m 13,0 km/h N -4,0 C -3,8 C 33,8 km/h
02.01.2019 20:00 1,3 C 67 % 1023,9 hPa 0,0 l/m 12,8 km/h N -4,1 C -4,0 C 31,8 km/h
02.01.2019 21:00 1,0 C 65 % 1024,8 hPa 0,0 l/m 11,4 km/h N -4,8 C -3,4 C 30,2 km/h
02.01.2019 22:00 0,2 C 64 % 1025,0 hPa 0,0 l/m 11,0 km/h N -5,9 C -4,0 C 29,4 km/h
02.01.2019 23:00 -0,1 C 64 % 1024,8 hPa 0,0 l/m 11,1 km/h N -6,1 C -4,4 C 31,4 km/h
03.01.2019 00:00 -0,6 C 73 % 1025,4 hPa 0,0 l/m 9,3 km/h N -4,9 C -3,4 C 23,4 km/h
03.01.2019 01:00 -1,6 C 77 % 1026,2 hPa 0,0 l/m 11,9 km/h N -5,0 C -6,7 C 30,6 km/h
03.01.2019 02:00 -0,9 C 63 % 1027,1 hPa 0,0 l/m 13,1 km/h N -7,1 C -6,8 C 33,8 km/h
03.01.2019 03:00 -1,1 C 62 % 1027,1 hPa 0,0 l/m 11,8 km/h N -7,5 C -6,1 C 30,2 km/h
03.01.2019 04:00 -1,6 C 67 % 1027,2 hPa 0,0 l/m 10,4 km/h N -6,8 C -5,6 C 28,6 km/h
03.01.2019 05:00 -1,1 C 61 % 1027,2 hPa 0,0 l/m 14,3 km/h N -7,6 C -7,8 C 37,4 km/h
03.01.2019 06:00 -1,1 C 61 % 1027,7 hPa 0,0 l/m 14,0 km/h N -7,7 C -7,6 C 35,8 km/h
03.01.2019 07:00 -1,1 C 61 % 1028,1 hPa 0,0 l/m 13,4 km/h N -7,7 C -7,2 C 33,8 km/h
03.01.2019 08:00 -0,9 C 58 % 1028,5 hPa 0,0 l/m 15,3 km/h N -8,1 C -8,2 C 33,0 km/h
03.01.2019 09:00 -0,9 C 61 % 1028,6 hPa 0,0 l/m 15,2 km/h N -7,5 C -8,1 C 35,0 km/h
03.01.2019 10:00 -0,8 C 63 % 1028,3 hPa 0,0 l/m 16,4 km/h N -7,0 C -8,8 C 41,8 km/h
03.01.2019 11:00 -0,6 C 67 % 1027,8 hPa 0,0 l/m 16,5 km/h N -6,0 C -8,6 C 35,8 km/h
03.01.2019 12:00 -0,7 C 71 % 1026,6 hPa 0,0 l/m 15,0 km/h N -5,3 C -7,8 C 35,8 km/h
03.01.2019 13:00 -1,3 C 80 % 1026,2 hPa 0,0 l/m 13,8 km/h N -4,4 C -7,7 C 31,8 km/h
03.01.2019 14:00 -1,4 C 82 % 1026,1 hPa 0,0 l/m 11,2 km/h N -4,0 C -6,0 C 26,5 km/h
03.01.2019 15:00 -1,4 C 83 % 1026,1 hPa 0,0 l/m 8,6 km/h N -4,0 C -3,8 C 22,1 km/h
03.01.2019 16:00 -1,8 C 82 % 1026,5 hPa 0,0 l/m 6,3 km/h N -4,5 C -3,3 C 19,3 km/h
03.01.2019 17:00 -2,3 C 82 % 1027,3 hPa 0,0 l/m 8,3 km/h N -4,9 C -4,3 C 21,7 km/h
03.01.2019 18:00 -2,3 C 82 % 1027,7 hPa 0,0 l/m 8,3 km/h N -5,0 C -4,4 C 23,3 km/h
03.01.2019 19:00 -2,3 C 83 % 1028,4 hPa 0,0 l/m 8,3 km/h N -4,8 C -4,4 C 20,9 km/h
03.01.2019 20:00 -2,3 C 82 % 1028,9 hPa 0,0 l/m 9,3 km/h N -4,9 C -5,3 C 24,1 km/h
03.01.2019 21:00 -2,2 C 81 % 1029,4 hPa 0,0 l/m 8,9 km/h N -5,0 C -4,8 C 23,3 km/h
03.01.2019 22:00 -2,2 C 78 % 1029,8 hPa 0,0 l/m 8,3 km/h N -5,5 C -4,2 C 21,7 km/h
03.01.2019 23:00 -2,3 C 77 % 1029,9 hPa 0,0 l/m 8,3 km/h N -5,8 C -4,3 C 22,1 km/h
04.01.2019 00:00 -2,1 C 74 % 1030,1 hPa 0,0 l/m 8,4 km/h N -6,1 C -4,2 C 24,5 km/h
04.01.2019 01:00 -2,4 C 74 % 1030,3 hPa 0,0 l/m 8,6 km/h N -6,4 C -4,7 C 22,9 km/h
04.01.2019 02:00 -2,5 C 74 % 1030,8 hPa 0,0 l/m 8,0 km/h N -6,5 C -4,2 C 22,5 km/h
04.01.2019 03:00 -2,6 C 75 % 1031,0 hPa 0,0 l/m 6,0 km/h N -6,4 C -2,7 C 17,3 km/h
04.01.2019 04:00 -2,5 C 74 % 1030,9 hPa 0,0 l/m 6,0 km/h N -6,4 C -2,6 C 17,7 km/h
04.01.2019 05:00 -2,4 C 77 % 1031,0 hPa 0,0 l/m 7,1 km/h N -5,9 C -3,1 C 20,9 km/h
04.01.2019 06:00 -2,5 C 76 % 1031,2 hPa 0,0 l/m 7,6 km/h N -6,2 C -3,8 C 19,7 km/h
04.01.2019 07:00 -2,3 C 73 % 1031,6 hPa 0,0 l/m 6,3 km/h N -6,4 C -2,6 C 18,9 km/h
04.01.2019 08:00 -2,2 C 72 % 1032,3 hPa 0,0 l/m 5,5 km/h N -6,5 C -2,2 C 15,3 km/h
04.01.2019 09:00 -1,5 C 74 % 1032,5 hPa 0,0 l/m 6,6 km/h N -5,6 C -2,1 C 19,7 km/h
04.01.2019 10:00 -1,2 C 73 % 1032,2 hPa 0,0 l/m 5,6 km/h N -5,5 C -1,4 C 18,9 km/h
04.01.2019 11:00 -1,2 C 73 % 1031,7 hPa 0,0 l/m 7,7 km/h N -5,5 C -3,0 C 23,3 km/h
04.01.2019 12:00 -0,7 C 68 % 1030,8 hPa 0,0 l/m 6,9 km/h N -5,9 C -1,5 C 20,9 km/h
04.01.2019 13:00 -0,3 C 66 % 1030,0 hPa 0,0 l/m 8,0 km/h N -5,8 C -2,0 C 24,5 km/h
04.01.2019 14:00 -0,4 C 73 % 1029,3 hPa 0,0 l/m 8,8 km/h N -4,7 C -2,9 C 27,8 km/h
04.01.2019 15:00 -0,7 C 81 % 1028,6 hPa 0,0 l/m 8,2 km/h N -3,6 C -2,6 C 22,5 km/h
04.01.2019 16:00 -0,1 C 82 % 1027,4 hPa 0,0 l/m 12,8 km/h N -2,8 C -5,6 C 30,6 km/h
04.01.2019 17:00 0,1 C 83 % 1027,1 hPa 0,0 l/m 12,3 km/h N -2,5 C -5,1 C 30,2 km/h
04.01.2019 18:00 0,2 C 82 % 1026,5 hPa 0,0 l/m 9,5 km/h N -2,5 C -2,7 C 28,6 km/h
04.01.2019 19:00 0,3 C 82 % 1025,7 hPa 0,0 l/m 8,0 km/h N -2,4 C -1,5 C 27,4 km/h
04.01.2019 20:00 0,4 C 83 % 1025,0 hPa 0,0 l/m 10,9 km/h N -2,2 C -3,7 C 29,8 km/h
04.01.2019 21:00 0,6 C 83 % 1024,6 hPa 0,0 l/m 13,8 km/h N -2,0 C -5,5 C 37,0 km/h
04.01.2019 22:00 0,3 C 82 % 1024,2 hPa 0,0 l/m 13,4 km/h N -2,4 C -5,6 C 34,6 km/h
04.01.2019 23:00 0,7 C 82 % 1023,8 hPa 0,0 l/m 13,2 km/h N -2,0 C -5,0 C 31,8 km/h
05.01.2019 00:00 1,1 C 83 % 1023,3 hPa 0,0 l/m 13,0 km/h N -1,5 C -4,4 C 31,0 km/h
05.01.2019 01:00 1,3 C 83 % 1022,7 hPa 0,0 l/m 11,1 km/h N -1,3 C -2,8 C 29,8 km/h
05.01.2019 02:00 1,5 C 82 % 1022,3 hPa 0,0 l/m 11,8 km/h N -1,3 C -3,2 C 35,0 km/h
05.01.2019 03:00 1,7 C 82 % 1021,3 hPa 0,5 l/m 14,0 km/h N -1,1 C -4,3 C 40,6 km/h
05.01.2019 04:00 1,5 C 82 % 1020,4 hPa 1,0 l/m 16,5 km/h N -1,2 C -5,9 C 41,5 km/h
05.01.2019 05:00 1,7 C 82 % 1019,6 hPa 0,8 l/m 11,6 km/h N -1,0 C -2,8 C 34,2 km/h
05.01.2019 06:00 1,8 C 82 % 1018,2 hPa 0,3 l/m 10,3 km/h N -1,0 C -1,6 C 35,8 km/h
05.01.2019 07:00 2,0 C 81 % 1017,6 hPa 0,5 l/m 13,8 km/h N -0,9 C -3,7 C 42,2 km/h
05.01.2019 08:00 1,7 C 82 % 1017,2 hPa 0,8 l/m 14,6 km/h N -1,0 C -4,6 C 41,0 km/h
05.01.2019 09:00 1,9 C 82 % 1016,5 hPa 0,8 l/m 15,3 km/h N -0,8 C -4,9 C 41,8 km/h
05.01.2019 10:00 2,1 C 83 % 1015,7 hPa 1,0 l/m 15,9 km/h N -0,6 C -4,9 C 43,9 km/h
05.01.2019 11:00 2,2 C 82 % 1014,8 hPa 1,6 l/m 16,3 km/h N -0,5 C -5,0 C 40,6 km/h
05.01.2019 12:00 2,3 C 82 % 1014,0 hPa 1,8 l/m 16,9 km/h N -0,4 C -5,1 C 45,1 km/h
05.01.2019 13:00 2,3 C 82 % 1014,1 hPa 1,8 l/m 15,1 km/h N -0,5 C -4,3 C 44,7 km/h
05.01.2019 14:00 2,3 C 82 % 1014,9 hPa 1,8 l/m 17,0 km/h N -0,4 C -5,2 C 45,1 km/h
05.01.2019 15:00 2,4 C 82 % 1015,6 hPa 1,3 l/m 13,1 km/h N -0,3 C -2,9 C 32,2 km/h
05.01.2019 16:00 2,6 C 82 % 1015,9 hPa 1,3 l/m 13,1 km/h N -0,1 C -2,7 C 31,0 km/h
05.01.2019 17:00 2,8 C 82 % 1016,3 hPa 1,0 l/m 14,0 km/h N 0,1 C -3,0 C 33,0 km/h
05.01.2019 18:00 3,2 C 83 % 1016,6 hPa 0,3 l/m 15,9 km/h N 0,5 C -3,6 C 35,0 km/h
05.01.2019 19:00 3,3 C 82 % 1017,3 hPa 0,3 l/m 15,4 km/h N 0,5 C -3,2 C 37,0 km/h
05.01.2019 20:00 2,8 C 83 % 1017,8 hPa 0,3 l/m 14,3 km/h N 0,2 C -3,1 C 31,8 km/h
05.01.2019 21:00 2,7 C 82 % 1018,4 hPa 0,3 l/m 8,4 km/h N -0,0 C 0,9 C 24,1 km/h
05.01.2019 22:00 2,7 C 82 % 1018,5 hPa 0,3 l/m 8,8 km/h N -0,1 C 0,6 C 23,7 km/h
05.01.2019 23:00 2,5 C 82 % 1018,6 hPa 0,3 l/m 5,4 km/h N -0,2 C 2,1 C 20,9 km/h
06.01.2019 00:00 2,6 C 82 % 1018,1 hPa 0,3 l/m 11,5 km/h N -0,2 C -1,6 C 27,8 km/h
06.01.2019 01:00 2,5 C 82 % 1018,0 hPa 0,8 l/m 9,4 km/h N -0,2 C 0,0 C 24,5 km/h
06.01.2019 02:00 2,8 C 82 % 1018,1 hPa 0,3 l/m 6,0 km/h N 0,1 C 2,4 C 18,9 km/h
06.01.2019 03:00 3,3 C 83 % 1018,3 hPa 0,0 l/m 9,8 km/h N 0,6 C 0,4 C 24,1 km/h
06.01.2019 04:00 3,3 C 83 % 1018,6 hPa 0,0 l/m 7,0 km/h N 0,7 C 2,3 C 21,4 km/h
06.01.2019 05:00 3,2 C 82 % 1018,9 hPa 0,0 l/m 5,5 km/h N 0,5 C 3,2 C 18,9 km/h
06.01.2019 06:00 2,7 C 80 % 1019,6 hPa 0,0 l/m 7,6 km/h N -0,4 C 1,3 C 26,2 km/h
06.01.2019 07:00 2,3 C 74 % 1020,5 hPa 0,0 l/m 10,0 km/h N -1,9 C -1,0 C 28,2 km/h
06.01.2019 08:00 2,2 C 72 % 1021,7 hPa 0,0 l/m 8,7 km/h N -2,4 C 0,2 C 27,0 km/h
06.01.2019 09:00 1,9 C 70 % 1022,6 hPa 0,0 l/m 7,8 km/h N -3,0 C 0,5 C 26,5 km/h
06.01.2019 10:00 2,1 C 69 % 1023,1 hPa 0,0 l/m 9,2 km/h N -3,1 C -0,5 C 27,0 km/h
06.01.2019 11:00 2,2 C 68 % 1023,1 hPa 0,0 l/m 10,2 km/h N -3,1 C -1,1 C 29,8 km/h
06.01.2019 12:00 2,2 C 67 % 1023,1 hPa 0,0 l/m 8,8 km/h N -3,4 C -0,1 C 25,8 km/h
06.01.2019 13:00 2,1 C 65 % 1023,2 hPa 0,0 l/m 10,9 km/h N -3,8 C -1,7 C 29,8 km/h
06.01.2019 14:00 2,0 C 65 % 1023,8 hPa 0,0 l/m 9,3 km/h N -3,8 C -0,5 C 31,0 km/h
06.01.2019 15:00 1,6 C 68 % 1024,3 hPa 0,0 l/m 9,9 km/h N -3,6 C -1,5 C 29,8 km/h
06.01.2019 16:00 1,3 C 70 % 1024,6 hPa 0,0 l/m 10,0 km/h N -3,5 C -2,0 C 29,8 km/h
06.01.2019 17:00 1,3 C 72 % 1025,1 hPa 0,0 l/m 9,0 km/h N -3,2 C -1,1 C 26,5 km/h
06.01.2019 18:00 1,5 C 66 % 1025,5 hPa 0,0 l/m 11,4 km/h N -4,2 C -2,9 C 31,4 km/h
06.01.2019 19:00 1,4 C 67 % 1026,1 hPa 0,0 l/m 9,8 km/h N -4,2 C -1,6 C 27,4 km/h
06.01.2019 20:00 1,3 C 67 % 1026,3 hPa 0,0 l/m 8,9 km/h N -4,1 C -1,1 C 26,5 km/h
06.01.2019 21:00 1,3 C 67 % 1026,7 hPa 0,0 l/m 6,8 km/h N -4,1 C 0,6 C 23,3 km/h
06.01.2019 22:00 1,2 C 68 % 1026,9 hPa 0,0 l/m 4,4 km/h N -4,0 C 1,2 C 20,1 km/h
06.01.2019 23:00 1,1 C 68 % 1027,3 hPa 0,0 l/m 5,2 km/h N -4,2 C 0,9 C 20,5 km/h
Min-Datum _ 04.01.19 03.01.19 05.01.19 - 31.12.18 - 03.01.19 03.01.19 31.12.18
_ Min-Zeit 03:30 08:00 13:00 - 16:15 - 08:00 06:15 16:15
Minimum _ -2,7 C 58 % 1013,5 hPa - 0,0 km/h - -8,2 C -9,5 C 0,0 km/h
Max-Datum _ 01.01.19 31.12.18 04.01.19 05.01.19 01.01.19 - 01.01.19 01.01.19 01.01.19
_ Max-Zeit 12:45 01:45 08:45 12:00 23:30 - 11:00 12:00 21:15
Maximum _ 8,3 C 85 % 1032,5 hPa 1,8 l/m 21,3 km/h
N
- 4,0 C 7,9 C 61,2 km/h
N
Durchschnitt _ 2,2 C 75 % 1023,9 hPa #21,6 l/m 9,8 km/h N -1,8 C -1,0 C 27,1 km/h